sensor_id;sensor_type;location;lat;lon;timestamp;pressure;altitude;pressure_sealevel;temperature;humidity
36354;BME280;22383;51.114;13.666;2023-03-13T00:01:22;67880.69;;;6.27;100.00
36354;BME280;22383;51.114;13.666;2023-03-13T00:03:50;67884.66;;;6.30;100.00
36354;BME280;22383;51.114;13.666;2023-03-13T00:06:18;67901.38;;;6.43;100.00
36354;BME280;22383;51.114;13.666;2023-03-13T00:08:45;67908.19;;;6.49;100.00
36354;BME280;22383;51.114;13.666;2023-03-13T00:11:14;67908.56;;;6.47;100.00
36354;BME280;22383;51.114;13.666;2023-03-13T00:13:42;67907.81;;;6.51;100.00
36354;BME280;22383;51.114;13.666;2023-03-13T00:16:14;67891.63;;;6.39;100.00
36354;BME280;22383;51.114;13.666;2023-03-13T00:18:47;67894.63;;;6.37;100.00
36354;BME280;22383;51.114;13.666;2023-03-13T00:21:16;67897.84;;;6.44;100.00
36354;BME280;22383;51.114;13.666;2023-03-13T00:23:44;67909.69;;;6.55;100.00
36354;BME280;22383;51.114;13.666;2023-03-13T00:26:15;67904.63;;;6.51;100.00
36354;BME280;22383;51.114;13.666;2023-03-13T00:28:43;67906.88;;;6.53;100.00
36354;BME280;22383;51.114;13.666;2023-03-13T00:31:16;67915.53;;;6.56;100.00
36354;BME280;22383;51.114;13.666;2023-03-13T00:33:46;67915.16;;;6.58;100.00
36354;BME280;22383;51.114;13.666;2023-03-13T00:36:16;67916.47;;;6.54;100.00
36354;BME280;22383;51.114;13.666;2023-03-13T00:38:44;67921.75;;;6.61;100.00
36354;BME280;22383;51.114;13.666;2023-03-13T00:41:17;67921.00;;;6.66;100.00
36354;BME280;22383;51.114;13.666;2023-03-13T00:43:46;67932.28;;;6.69;100.00
36354;BME280;22383;51.114;13.666;2023-03-13T00:46:16;67918.19;;;6.63;100.00
36354;BME280;22383;51.114;13.666;2023-03-13T00:48:43;67920.22;;;6.62;100.00
36354;BME280;22383;51.114;13.666;2023-03-13T00:51:11;67924.19;;;6.66;100.00
36354;BME280;22383;51.114;13.666;2023-03-13T00:53:41;67924.19;;;6.66;100.00
36354;BME280;22383;51.114;13.666;2023-03-13T00:56:11;67922.69;;;6.67;100.00
36354;BME280;22383;51.114;13.666;2023-03-13T00:58:40;67917.59;;;6.62;100.00
36354;BME280;22383;51.114;13.666;2023-03-13T01:01:13;67921.94;;;6.64;100.00
36354;BME280;22383;51.114;13.666;2023-03-13T01:03:42;67926.81;;;6.66;100.00
36354;BME280;22383;51.114;13.666;2023-03-13T01:06:13;67919.66;;;6.62;100.00
36354;BME280;22383;51.114;13.666;2023-03-13T01:08:42;67925.88;;;6.68;100.00
36354;BME280;22383;51.114;13.666;2023-03-13T01:11:13;67929.84;;;6.71;100.00
36354;BME280;22383;51.114;13.666;2023-03-13T01:13:41;67934.94;;;6.76;100.00
36354;BME280;22383;51.114;13.666;2023-03-13T01:16:12;67930.97;;;6.72;100.00
36354;BME280;22383;51.114;13.666;2023-03-13T01:18:43;67927.59;;;6.69;100.00
36354;BME280;22383;51.114;13.666;2023-03-13T01:21:11;67926.25;;;6.66;100.00
36354;BME280;22383;51.114;13.666;2023-03-13T01:23:39;67925.31;;;6.67;100.00
36354;BME280;22383;51.114;13.666;2023-03-13T01:26:09;67927.59;;;6.69;100.00
36354;BME280;22383;51.114;13.666;2023-03-13T01:28:37;67941.16;;;6.81;100.00
36354;BME280;22383;51.114;13.666;2023-03-13T01:33:53;67942.28;;;6.82;100.00
36354;BME280;22383;51.114;13.666;2023-03-13T01:36:21;67936.63;;;6.77;100.00
36354;BME280;22383;51.114;13.666;2023-03-13T01:38:51;67929.28;;;6.71;100.00
36354;BME280;22383;51.114;13.666;2023-03-13T01:41:19;67928.16;;;6.70;100.00
36354;BME280;22383;51.114;13.666;2023-03-13T01:43:47;67940.19;;;6.76;100.00
36354;BME280;22383;51.114;13.666;2023-03-13T01:46:20;67937.56;;;6.76;100.00
36354;BME280;22383;51.114;13.666;2023-03-13T01:49:07;67933.22;;;6.74;100.00
36354;BME280;22383;51.114;13.666;2023-03-13T01:51:47;67935.31;;;6.74;100.00
36354;BME280;22383;51.114;13.666;2023-03-13T01:54:19;67925.69;;;6.65;100.00
36354;BME280;22383;51.114;13.666;2023-03-13T01:59:42;67929.84;;;6.71;100.00
36354;BME280;22383;51.114;13.666;2023-03-13T02:02:11;67920.81;;;6.63;100.00
36354;BME280;22383;51.114;13.666;2023-03-13T02:04:44;67927.59;;;6.69;100.00
36354;BME280;22383;51.114;13.666;2023-03-13T02:07:17;67930.41;;;6.72;100.00
36354;BME280;22383;51.114;13.666;2023-03-13T02:09:49;67928.88;;;6.66;100.00
36354;BME280;22383;51.114;13.666;2023-03-13T02:12:24;67917.41;;;6.60;100.00
36354;BME280;22383;51.114;13.666;2023-03-13T02:14:54;67905.56;;;6.49;100.00
36354;BME280;22383;51.114;13.666;2023-03-13T02:17:24;67911.00;;;6.52;100.00
36354;BME280;22383;51.114;13.666;2023-03-13T02:19:52;67910.44;;;6.51;100.00
36354;BME280;22383;51.114;13.666;2023-03-13T02:28:04;67897.06;;;6.41;100.00
36354;BME280;22383;51.114;13.666;2023-03-13T02:30:36;67893.09;;;6.38;100.00
36354;BME280;22383;51.114;13.666;2023-03-13T02:36:53;67904.22;;;6.46;100.00
36354;BME280;22383;51.114;13.666;2023-03-13T02:39:22;67900.47;;;6.44;100.00
36354;BME280;22383;51.114;13.666;2023-03-13T02:41:51;67893.50;;;6.43;100.00
36354;BME280;22383;51.114;13.666;2023-03-13T02:44:19;67915.53;;;6.56;100.00
36354;BME280;22383;51.114;13.666;2023-03-13T02:46:49;67913.84;;;6.54;100.00
36354;BME280;22383;51.114;13.666;2023-03-13T02:49:28;67928.50;;;6.68;100.00
36354;BME280;22383;51.114;13.666;2023-03-13T02:52:11;67931.38;;;6.77;100.00
36354;BME280;22383;51.114;13.666;2023-03-13T02:54:44;67927.59;;;6.69;100.00
36354;BME280;22383;51.114;13.666;2023-03-13T02:57:13;67937.56;;;6.76;100.00
36354;BME280;22383;51.114;13.666;2023-03-13T02:59:40;67930.41;;;6.72;100.00
36354;BME280;22383;51.114;13.666;2023-03-13T03:02:08;67938.69;;;6.77;100.00
36354;BME280;22383;51.114;13.666;2023-03-13T03:04:36;67936.63;;;6.77;100.00
36354;BME280;22383;51.114;13.666;2023-03-13T03:07:04;67943.78;;;6.81;100.00
36354;BME280;22383;51.114;13.666;2023-03-13T03:09:32;67956.03;;;6.97;100.00
36354;BME280;22383;51.114;13.666;2023-03-13T03:12:04;67957.91;;;6.94;100.00
36354;BME280;22383;51.114;13.666;2023-03-13T03:14:32;67953.59;;;6.93;100.00
36354;BME280;22383;51.114;13.666;2023-03-13T03:17:00;67963.75;;;7.02;100.00
36354;BME280;22383;51.114;13.666;2023-03-13T03:19:28;67963.19;;;7.02;100.00
36354;BME280;22383;51.114;13.666;2023-03-13T03:21:55;67966.94;;;7.03;100.00
36354;BME280;22383;51.114;13.666;2023-03-13T03:24:23;67951.91;;;6.91;100.00
36354;BME280;22383;51.114;13.666;2023-03-13T03:26:50;67953.97;;;6.91;100.00
36354;BME280;22383;51.114;13.666;2023-03-13T03:29:26;67943.78;;;6.81;100.00
36354;BME280;22383;51.114;13.666;2023-03-13T03:31:55;67942.28;;;6.82;100.00
36354;BME280;22383;51.114;13.666;2023-03-13T03:34:22;67943.22;;;6.81;100.00
36354;BME280;22383;51.114;13.666;2023-03-13T03:36:51;67932.31;;;6.76;100.00
36354;BME280;22383;51.114;13.666;2023-03-13T03:39:18;67939.25;;;6.77;100.00
36354;BME280;22383;51.114;13.666;2023-03-13T03:41:46;67941.72;;;6.82;100.00
36354;BME280;22383;51.114;13.666;2023-03-13T03:44:14;67942.84;;;6.83;100.00
36354;BME280;22383;51.114;13.666;2023-03-13T03:47:02;67934.75;;;6.73;100.00
36354;BME280;22383;51.114;13.666;2023-03-13T03:49:34;67942.44;;;6.78;100.00
36354;BME280;22383;51.114;13.666;2023-03-13T03:52:01;67938.34;;;6.79;100.00
36354;BME280;22383;51.114;13.666;2023-03-13T03:54:34;67954.31;;;6.89;100.00
36354;BME280;22383;51.114;13.666;2023-03-13T03:57:02;67953.97;;;6.91;100.00
36354;BME280;22383;51.114;13.666;2023-03-13T03:59:29;67938.34;;;6.79;100.00
36354;BME280;22383;51.114;13.666;2023-03-13T04:02:01;67942.28;;;6.82;100.00
36354;BME280;22383;51.114;13.666;2023-03-13T04:04:31;67936.06;;;6.77;100.00
36354;BME280;22383;51.114;13.666;2023-03-13T04:07:03;67934.16;;;6.73;100.00
36354;BME280;22383;51.114;13.666;2023-03-13T04:09:32;67942.84;;;6.83;100.00
36354;BME280;22383;51.114;13.666;2023-03-13T04:12:02;67955.09;;;6.92;100.00
36354;BME280;22383;51.114;13.666;2023-03-13T04:14:34;67939.44;;;6.80;100.00
36354;BME280;22383;51.114;13.666;2023-03-13T04:17:04;67940.59;;;6.81;100.00
36354;BME280;22383;51.114;13.666;2023-03-13T04:19:32;67933.22;;;6.74;100.00
36354;BME280;22383;51.114;13.666;2023-03-13T04:22:00;67929.84;;;6.71;100.00
36354;BME280;22383;51.114;13.666;2023-03-13T04:24:28;67924.75;;;6.67;100.00
36354;BME280;22383;51.114;13.666;2023-03-13T04:26:57;67925.13;;;6.65;100.00
36354;BME280;22383;51.114;13.666;2023-03-13T04:29:26;67924.94;;;6.69;100.00
36354;BME280;22383;51.114;13.666;2023-03-13T04:32:00;67924.41;;;6.69;100.00
36354;BME280;22383;51.114;13.666;2023-03-13T04:35:03;67913.66;;;6.59;100.00
36354;BME280;22383;51.114;13.666;2023-03-13T04:38:02;67918.34;;;6.58;100.00
36354;BME280;22383;51.114;13.666;2023-03-13T04:40:50;67909.56;;;6.74;100.00
36354;BME280;22383;51.114;13.666;2023-03-13T04:43:29;67924.56;;;6.64;100.00
36354;BME280;22383;51.114;13.666;2023-03-13T04:46:10;67928.16;;;6.70;100.00
36354;BME280;22383;51.114;13.666;2023-03-13T04:49:05;67936.63;;;6.77;100.00
36354;BME280;22383;51.114;13.666;2023-03-13T04:51:50;67938.88;;;6.79;100.00
36354;BME280;22383;51.114;13.666;2023-03-13T04:54:35;67947.72;;;6.85;100.00
36354;BME280;22383;51.114;13.666;2023-03-13T04:57:23;67933.78;;;6.75;100.00
36354;BME280;22383;51.114;13.666;2023-03-13T05:00:00;67950.00;;;6.87;100.00
36354;BME280;22383;51.114;13.666;2023-03-13T05:02:43;67957.34;;;6.94;100.00
36354;BME280;22383;51.114;13.666;2023-03-13T05:05:25;67952.81;;;6.90;100.00
36354;BME280;22383;51.114;13.666;2023-03-13T05:08:00;67946.81;;;6.87;100.00
36354;BME280;22383;51.114;13.666;2023-03-13T05:10:41;67945.47;;;6.83;100.00
36354;BME280;22383;51.114;13.666;2023-03-13T05:13:32;67955.66;;;6.92;100.00
36354;BME280;22383;51.114;13.666;2023-03-13T05:16:18;67945.69;;;6.86;100.00
36354;BME280;22383;51.114;13.666;2023-03-13T05:19:04;67949.25;;;6.84;100.00
36354;BME280;22383;51.114;13.666;2023-03-13T05:22:03;67945.47;;;6.83;100.00
36354;BME280;22383;51.114;13.666;2023-03-13T05:24:51;67953.97;;;6.91;100.00
36354;BME280;22383;51.114;13.666;2023-03-13T05:27:48;67947.00;;;6.89;100.00
36354;BME280;22383;51.114;13.666;2023-03-13T05:30:31;67966.59;;;7.05;100.00
36354;BME280;22383;51.114;13.666;2023-03-13T05:33:27;67963.56;;;6.99;100.00
36354;BME280;22383;51.114;13.666;2023-03-13T05:36:04;67972.22;;;7.10;100.00
36354;BME280;22383;51.114;13.666;2023-03-13T05:38:57;67975.44;;;7.10;100.00
36354;BME280;22383;51.114;13.666;2023-03-13T05:42:03;67971.50;;;7.07;100.00
36354;BME280;22383;51.114;13.666;2023-03-13T05:44:38;67986.56;;;7.18;100.00
36354;BME280;22383;51.114;13.666;2023-03-13T05:47:29;67981.84;;;7.18;100.00
36354;BME280;22383;51.114;13.666;2023-03-13T05:50:16;67987.50;;;7.24;100.00
36354;BME280;22383;51.114;13.666;2023-03-13T05:53:17;67999.19;;;7.32;100.00
36354;BME280;22383;51.114;13.666;2023-03-13T05:56:06;68002.78;;;7.37;100.00
36354;BME280;22383;51.114;13.666;2023-03-13T05:59:03;68006.72;;;7.41;100.00
36354;BME280;22383;51.114;13.666;2023-03-13T06:01:53;68022.19;;;7.50;100.00
36354;BME280;22383;51.114;13.666;2023-03-13T06:04:33;68013.53;;;7.47;100.00
36354;BME280;22383;51.114;13.666;2023-03-13T06:07:02;68021.22;;;7.52;100.00
36354;BME280;22383;51.114;13.666;2023-03-13T06:09:29;68018.97;;;7.50;100.00
36354;BME280;22383;51.114;13.666;2023-03-13T06:11:58;68025.41;;;7.58;100.00
36354;BME280;22383;51.114;13.666;2023-03-13T06:14:26;68017.66;;;7.53;100.00
36354;BME280;22383;51.114;13.666;2023-03-13T06:17:16;68011.63;;;7.43;100.00
36354;BME280;22383;51.114;13.666;2023-03-13T06:19:45;68010.13;;;7.44;100.00
36354;BME280;22383;51.114;13.666;2023-03-13T06:22:15;68013.53;;;7.47;100.00
36354;BME280;22383;51.114;13.666;2023-03-13T06:24:43;68020.88;;;7.54;100.00
36354;BME280;22383;51.114;13.666;2023-03-13T06:27:10;68035.38;;;7.65;100.00
36354;BME280;22383;51.114;13.666;2023-03-13T06:29:38;68054.81;;;7.85;100.00
36354;BME280;22383;51.114;13.666;2023-03-13T06:32:05;68061.03;;;7.90;100.00
36354;BME280;22383;51.114;13.666;2023-03-13T06:34:33;68052.53;;;7.83;100.00
36354;BME280;22383;51.114;13.666;2023-03-13T06:37:02;68069.91;;;7.96;100.00
36354;BME280;22383;51.114;13.666;2023-03-13T06:39:30;68083.81;;;8.06;100.00
36354;BME280;22383;51.114;13.666;2023-03-13T06:41:57;68062.72;;;7.92;100.00
36354;BME280;22383;51.114;13.666;2023-03-13T06:44:25;68081.19;;;8.06;100.00
36354;BME280;22383;51.114;13.666;2023-03-13T06:46:52;68074.41;;;8.00;100.00
36354;BME280;22383;51.114;13.666;2023-03-13T06:49:20;68079.13;;;8.07;100.00
36354;BME280;22383;51.114;13.666;2023-03-13T06:51:47;68088.00;;;8.12;100.00
36354;BME280;22383;51.114;13.666;2023-03-13T06:54:15;68092.72;;;8.19;100.00
36354;BME280;22383;51.114;13.666;2023-03-13T06:56:42;68105.16;;;8.30;100.00
36354;BME280;22383;51.114;13.666;2023-03-13T06:59:10;68121.59;;;8.45;100.00
36354;BME280;22383;51.114;13.666;2023-03-13T07:01:37;68128.00;;;8.54;100.00
36354;BME280;22383;51.114;13.666;2023-03-13T07:04:05;68133.28;;;8.54;100.00
36354;BME280;22383;51.114;13.666;2023-03-13T07:06:33;68151.59;;;8.73;100.00
36354;BME280;22383;51.114;13.666;2023-03-13T07:09:00;68153.84;;;8.75;100.00
36354;BME280;22383;51.114;13.666;2023-03-13T07:11:28;68160.09;;;8.80;100.00
36354;BME280;22383;51.114;13.666;2023-03-13T07:13:55;68158.00;;;8.81;100.00
36354;BME280;22383;51.114;13.666;2023-03-13T07:16:39;68168.56;;;8.88;100.00
36354;BME280;22383;51.114;13.666;2023-03-13T07:19:07;68169.50;;;8.86;100.00
36354;BME280;22383;51.114;13.666;2023-03-13T07:21:34;68163.47;;;8.83;100.00
36354;BME280;22383;51.114;13.666;2023-03-13T07:24:02;68159.50;;;8.80;100.00
36354;BME280;22383;51.114;13.666;2023-03-13T07:26:30;68148.00;;;8.74;100.00
36354;BME280;22383;51.114;13.666;2023-03-13T07:28:58;68154.03;;;8.70;100.00
36354;BME280;22383;51.114;13.666;2023-03-13T07:31:25;68132.94;;;8.56;100.00
36354;BME280;22383;51.114;13.666;2023-03-13T07:33:53;68118.75;;;8.43;100.00
36354;BME280;22383;51.114;13.666;2023-03-13T07:36:23;68115.72;;;8.38;100.00
36354;BME280;22383;51.114;13.666;2023-03-13T07:38:51;68094.03;;;8.23;100.00
36354;BME280;22383;51.114;13.666;2023-03-13T07:41:19;68082.16;;;8.12;100.00
36354;BME280;22383;51.114;13.666;2023-03-13T07:43:47;68078.94;;;8.04;100.00
36354;BME280;22383;51.114;13.666;2023-03-13T07:46:15;68066.69;;;7.95;100.00
36354;BME280;22383;51.114;13.666;2023-03-13T07:48:45;68072.91;;;8.01;100.00
36354;BME280;22383;51.114;13.666;2023-03-13T07:51:13;68076.50;;;8.00;100.00
36354;BME280;22383;51.114;13.666;2023-03-13T07:53:43;68058.56;;;7.86;100.00
36354;BME280;22383;51.114;13.666;2023-03-13T07:56:13;68052.53;;;7.83;100.00
36354;BME280;22383;51.114;13.666;2023-03-13T07:58:41;68053.09;;;7.83;100.00
36354;BME280;22383;51.114;13.666;2023-03-13T08:01:20;68056.13;;;7.88;100.00
36354;BME280;22383;51.114;13.666;2023-03-13T08:03:52;68048.41;;;7.84;100.00
36354;BME280;22383;51.114;13.666;2023-03-13T08:06:23;68054.44;;;7.87;100.00
36354;BME280;22383;51.114;13.666;2023-03-13T08:08:51;68053.69;;;7.84;100.00
36354;BME280;22383;51.114;13.666;2023-03-13T08:11:21;68047.44;;;7.78;100.00
36354;BME280;22383;51.114;13.666;2023-03-13T08:13:52;68050.47;;;7.83;100.00
36354;BME280;22383;51.114;13.666;2023-03-13T08:16:28;68048.78;;;7.82;100.00
36354;BME280;22383;51.114;13.666;2023-03-13T08:18:57;68054.81;;;7.85;100.00
36354;BME280;22383;51.114;13.666;2023-03-13T08:21:27;68055.19;;;7.83;100.00
36354;BME280;22383;51.114;13.666;2023-03-13T08:23:57;68059.91;;;7.89;100.00
36354;BME280;22383;51.114;13.666;2023-03-13T08:26:27;68050.28;;;7.81;100.00
36354;BME280;22383;51.114;13.666;2023-03-13T08:28:58;68047.44;;;7.78;100.00
36354;BME280;22383;51.114;13.666;2023-03-13T08:31:29;68049.91;;;7.83;100.00
36354;BME280;22383;51.114;13.666;2023-03-13T08:33:57;68064.41;;;7.93;100.00
36354;BME280;22383;51.114;13.666;2023-03-13T08:36:35;68070.47;;;7.97;100.00
36354;BME280;22383;51.114;13.666;2023-03-13T08:39:05;68077.81;;;8.03;100.00
36354;BME280;22383;51.114;13.666;2023-03-13T08:41:34;68049.16;;;7.80;100.00
36354;BME280;22383;51.114;13.666;2023-03-13T08:44:03;68075.19;;;8.03;100.00
36354;BME280;22383;51.114;13.666;2023-03-13T08:46:33;68088.75;;;8.16;100.00
36354;BME280;22383;51.114;13.666;2023-03-13T08:49:03;68098.94;;;8.25;100.00
36354;BME280;22383;51.114;13.666;2023-03-13T08:51:31;68105.38;;;8.33;100.00
36354;BME280;22383;51.114;13.666;2023-03-13T08:54:01;68116.28;;;8.38;100.00
36354;BME280;22383;51.114;13.666;2023-03-13T08:56:30;68124.03;;;8.50;100.00
36354;BME280;22383;51.114;13.666;2023-03-13T08:58:59;68132.53;;;8.58;100.00
36354;BME280;22383;51.114;13.666;2023-03-13T09:01:31;68130.09;;;8.53;100.00
36354;BME280;22383;51.114;13.666;2023-03-13T09:03:59;68121.03;;;8.45;100.00
36354;BME280;22383;51.114;13.666;2023-03-13T09:06:32;68125.38;;;8.54;100.00
36354;BME280;22383;51.114;13.666;2023-03-13T09:09:00;68143.66;;;8.65;100.00
36354;BME280;22383;51.114;13.666;2023-03-13T09:11:28;68131.41;;;8.57;100.00
36354;BME280;22383;51.114;13.666;2023-03-13T09:13:55;68142.16;;;8.66;100.00
36354;BME280;22383;51.114;13.666;2023-03-13T09:16:27;68137.44;;;8.60;100.00
36354;BME280;22383;51.114;13.666;2023-03-13T09:18:56;68135.38;;;8.60;100.00
36354;BME280;22383;51.114;13.666;2023-03-13T09:21:26;68143.09;;;8.65;100.00
36354;BME280;22383;51.114;13.666;2023-03-13T09:23:54;68155.38;;;8.74;100.00
36354;BME280;22383;51.114;13.666;2023-03-13T09:26:21;68159.72;;;8.75;100.00
36354;BME280;22383;51.114;13.666;2023-03-13T09:28:51;68149.88;;;8.71;100.00
36354;BME280;22383;51.114;13.666;2023-03-13T09:31:30;68159.31;;;8.77;100.00
36354;BME280;22383;51.114;13.666;2023-03-13T09:33:58;68147.63;;;8.69;100.00
36354;BME280;22383;51.114;13.666;2023-03-13T09:36:26;68142.91;;;8.69;100.00
36354;BME280;22383;51.114;13.666;2023-03-13T09:38:56;68149.88;;;8.71;100.00
36354;BME280;22383;51.114;13.666;2023-03-13T09:41:42;68158.00;;;8.81;100.00
36354;BME280;22383;51.114;13.666;2023-03-13T09:44:27;68166.31;;;8.86;100.00
36354;BME280;22383;51.114;13.666;2023-03-13T09:47:11;68182.16;;;9.00;100.00
36354;BME280;22383;51.114;13.666;2023-03-13T09:49:48;68179.34;;;8.98;100.00
36354;BME280;22383;51.114;13.666;2023-03-13T09:52:37;68194.44;;;9.09;100.00
36354;BME280;22383;51.114;13.666;2023-03-13T09:55:20;68215.00;;;9.30;100.00
36354;BME280;22383;51.114;13.666;2023-03-13T10:00:34;68211.59;;;9.27;100.00
36354;BME280;22383;51.114;13.666;2023-03-13T10:03:39;68230.31;;;9.44;100.00
36354;BME280;22383;51.114;13.666;2023-03-13T10:06:18;68241.44;;;9.52;100.00
36354;BME280;22383;51.114;13.666;2023-03-13T10:08:46;68257.69;;;9.71;100.00
36354;BME280;22383;51.114;13.666;2023-03-13T10:16:21;68259.75;;;9.71;100.00
36354;BME280;22383;51.114;13.666;2023-03-13T10:18:55;68258.06;;;9.69;100.00
36354;BME280;22383;51.114;13.666;2023-03-13T10:21:31;68250.31;;;9.64;100.00
36354;BME280;22383;51.114;13.666;2023-03-13T10:24:04;68261.28;;;9.77;100.00
36354;BME280;22383;51.114;13.666;2023-03-13T10:26:34;68284.69;;;9.93;100.00
36354;BME280;22383;51.114;13.666;2023-03-13T10:29:19;68300.00;;;10.07;100.00
36354;BME280;22383;51.114;13.666;2023-03-13T10:32:07;68285.81;;;9.94;100.00
36354;BME280;22383;51.114;13.666;2023-03-13T10:34:58;68322.47;;;10.32;100.00
36354;BME280;22383;51.114;13.666;2023-03-13T10:37:29;68327.41;;;10.34;100.00
36354;BME280;22383;51.114;13.666;2023-03-13T10:40:20;68330.22;;;10.37;100.00
36354;BME280;22383;51.114;13.666;2023-03-13T10:42:59;68350.06;;;10.55;100.00
36354;BME280;22383;51.114;13.666;2023-03-13T10:45:32;68355.56;;;10.57;100.00
36354;BME280;22383;51.114;13.666;2023-03-13T10:48:05;68340.81;;;10.66;100.00
36354;BME280;22383;51.114;13.666;2023-03-13T10:50:44;68352.16;;;10.54;100.00
36354;BME280;22383;51.114;13.666;2023-03-13T10:53:26;68365.00;;;10.64;100.00
36354;BME280;22383;51.114;13.666;2023-03-13T10:56:08;68372.56;;;10.73;100.00
36354;BME280;22383;51.114;13.666;2023-03-13T10:58:51;68384.28;;;10.81;100.00
36354;BME280;22383;51.114;13.666;2023-03-13T11:01:25;68391.09;;;10.87;100.00
36354;BME280;22383;51.114;13.666;2023-03-13T11:03:55;68375.97;;;10.97;100.00
36354;BME280;22383;51.114;13.666;2023-03-13T11:06:31;68402.22;;;11.02;100.00
36354;BME280;22383;51.114;13.666;2023-03-13T11:09:03;68405.47;;;11.03;100.00
36354;BME280;22383;51.114;13.666;2023-03-13T11:11:47;68404.50;;;11.04;100.00
36354;BME280;22383;51.114;13.666;2023-03-13T11:14:19;68382.75;;;11.04;100.00
36354;BME280;22383;51.114;13.666;2023-03-13T11:16:59;68414.34;;;11.15;100.00
36354;BME280;22383;51.114;13.666;2023-03-13T11:19:50;68419.81;;;11.18;100.00
36354;BME280;22383;51.114;13.666;2023-03-13T11:22:33;68415.28;;;11.14;100.00
36354;BME280;22383;51.114;13.666;2023-03-13T11:25:10;68419.63;;;11.15;100.00
36354;BME280;22383;51.114;13.666;2023-03-13T11:33:04;68415.84;;;11.14;100.00
36354;BME280;22383;51.114;13.666;2023-03-13T11:35:48;68413.41;;;11.10;100.00
36354;BME280;22383;51.114;13.666;2023-03-13T11:38:20;68419.06;;;11.15;100.00
36354;BME280;22383;51.114;13.666;2023-03-13T11:43:51;68414.91;;;11.09;100.00
36354;BME280;22383;51.114;13.666;2023-03-13T11:46:30;68413.19;;;11.07;100.00
36354;BME280;22383;51.114;13.666;2023-03-13T11:51:57;68429.06;;;11.29;100.00
36354;BME280;22383;51.114;13.666;2023-03-13T11:57:33;68421.13;;;11.22;100.00
36354;BME280;22383;51.114;13.666;2023-03-13T12:06:03;68420.75;;;11.16;100.00
36354;BME280;22383;51.114;13.666;2023-03-13T12:08:52;68424.91;;;11.23;100.00
36354;BME280;22383;51.114;13.666;2023-03-13T12:11:27;68427.75;;;11.25;100.00
36354;BME280;22383;51.114;13.666;2023-03-13T12:14:10;68442.31;;;11.36;100.00
36354;BME280;22383;51.114;13.666;2023-03-13T12:19:11;68460.47;;;11.52;100.00
36354;BME280;22383;51.114;13.666;2023-03-13T12:21:47;68469.94;;;11.66;100.00
36354;BME280;22383;51.114;13.666;2023-03-13T12:24:33;68482.78;;;11.75;100.00
36354;BME280;22383;51.114;13.666;2023-03-13T12:27:19;68524.44;;;12.08;100.00
36354;BME280;22383;51.114;13.666;2023-03-13T12:30:02;68539.16;;;12.28;100.00
36354;BME280;22383;51.114;13.666;2023-03-13T12:32:48;68578.94;;;12.57;100.00
36354;BME280;22383;51.114;13.666;2023-03-13T12:35:28;68601.84;;;12.80;100.00
36354;BME280;22383;51.114;13.666;2023-03-13T12:38:10;68617.94;;;12.97;100.00
36354;BME280;22383;51.114;13.666;2023-03-13T12:43:43;68627.38;;;13.03;100.00
36354;BME280;22383;51.114;13.666;2023-03-13T12:46:36;68645.56;;;13.13;100.00
36354;BME280;22383;51.114;13.666;2023-03-13T12:49:14;68632.88;;;13.13;100.00
36354;BME280;22383;51.114;13.666;2023-03-13T13:00:20;68661.88;;;13.32;100.00
36354;BME280;22383;51.114;13.666;2023-03-13T13:05:36;68661.50;;;13.34;100.00
36354;BME280;22383;51.114;13.666;2023-03-13T13:08:04;68669.63;;;13.44;100.00
36354;BME280;22383;51.114;13.666;2023-03-13T13:10:31;68677.97;;;13.49;100.00
36354;BME280;22383;51.114;13.666;2023-03-13T13:15:46;68697.84;;;13.67;100.00
36354;BME280;22383;51.114;13.666;2023-03-13T13:18:29;68714.91;;;13.83;100.00
36354;BME280;22383;51.114;13.666;2023-03-13T13:23:36;68714.13;;;13.87;100.00
36354;BME280;22383;51.114;13.666;2023-03-13T13:26:46;68723.59;;;13.93;100.00
36354;BME280;22383;51.114;13.666;2023-03-13T13:37:00;68739.91;;;14.05;100.00
36354;BME280;22383;51.114;13.666;2023-03-13T13:39:45;68750.13;;;14.14;100.00
36354;BME280;22383;51.114;13.666;2023-03-13T13:45:01;68719.47;;;13.87;100.00
36354;BME280;22383;51.114;13.666;2023-03-13T13:47:31;68696.66;;;13.88;100.00
36354;BME280;22383;51.114;13.666;2023-03-13T13:50:13;68699.56;;;13.69;100.00
36354;BME280;22383;51.114;13.666;2023-03-13T13:52:43;68675.31;;;13.49;100.00
36354;BME280;22383;51.114;13.666;2023-03-13T13:55:44;68671.16;;;13.43;100.00
36354;BME280;22383;51.114;13.666;2023-03-13T13:58:18;68660.34;;;13.33;100.00
36354;BME280;22383;51.114;13.666;2023-03-13T14:01:03;68662.06;;;13.35;100.00
36354;BME280;22383;51.114;13.666;2023-03-13T14:03:38;68668.69;;;13.38;100.00
36354;BME280;22383;51.114;13.666;2023-03-13T14:06:20;68655.03;;;13.26;100.00
36354;BME280;22383;51.114;13.666;2023-03-13T14:08:53;68652.19;;;13.31;100.00
36354;BME280;22383;51.114;13.666;2023-03-13T14:11:32;68659.22;;;13.32;100.00
36354;BME280;22383;51.114;13.666;2023-03-13T14:14:20;68673.03;;;13.47;100.00
36354;BME280;22383;51.114;13.666;2023-03-13T14:16:50;68679.66;;;13.51;100.00
36354;BME280;22383;51.114;13.666;2023-03-13T14:19:29;68679.03;;;13.72;100.00
36354;BME280;22383;51.114;13.666;2023-03-13T14:22:08;68706.56;;;13.77;100.00
36354;BME280;22383;51.114;13.666;2023-03-13T14:24:36;68710.53;;;13.81;100.00
36354;BME280;22383;51.114;13.666;2023-03-13T14:27:15;68709.41;;;13.80;100.00
36354;BME280;22383;51.114;13.666;2023-03-13T14:30:19;68701.81;;;13.71;100.00
36354;BME280;22383;51.114;13.666;2023-03-13T14:32:47;68683.84;;;13.57;100.00
36354;BME280;22383;51.114;13.666;2023-03-13T14:35:18;68681.38;;;13.52;100.00
36354;BME280;22383;51.114;13.666;2023-03-13T14:37:50;68691.22;;;13.64;100.00
36354;BME280;22383;51.114;13.666;2023-03-13T14:40:26;68693.88;;;13.64;100.00